createdAt,value
2023-11-27T00:00:55.106Z,100190.72
2023-11-27T00:03:21.970Z,100188.06
2023-11-27T00:05:48.883Z,100182.09
2023-11-27T00:08:15.892Z,100189.94
2023-11-27T00:10:45.851Z,100187.16
2023-11-27T00:13:12.776Z,100180.22
2023-11-27T00:15:39.716Z,100188.06
2023-11-27T00:18:06.927Z,100183.75
2023-11-27T00:20:33.839Z,100182.97
2023-11-27T00:23:00.928Z,100192.50
2023-11-27T00:25:27.756Z,100186.50
2023-11-27T00:27:54.613Z,100183.94
2023-11-27T00:30:24.707Z,100186.50
2023-11-27T00:32:51.794Z,100185.59
2023-11-27T00:35:18.667Z,100194.22
2023-11-27T00:37:45.559Z,100194.44
2023-11-27T00:40:13.043Z,100185.72
2023-11-27T00:42:42.938Z,100191.75
2023-11-27T00:45:10.352Z,100197.78
2023-11-27T00:47:37.472Z,100186.50
2023-11-27T00:50:05.286Z,100181.31
2023-11-27T00:52:32.905Z,100182.03
2023-11-27T00:54:59.753Z,100178.69
2023-11-27T00:57:26.728Z,100172.59
2023-11-27T00:59:54.222Z,100183.09
2023-11-27T01:02:22.140Z,100180.47
2023-11-27T01:04:49.154Z,100174.28
2023-11-27T01:07:16.280Z,100171.72
2023-11-27T01:09:43.299Z,100169.78
2023-11-27T01:12:11.028Z,100178.38
2023-11-27T01:14:38.357Z,100171.50
2023-11-27T01:17:05.767Z,100168.88
2023-11-27T01:19:35.525Z,100169.78
2023-11-27T01:22:02.454Z,100165.38
2023-11-27T01:24:29.734Z,100171.50
2023-11-27T01:26:59.294Z,100160.16
2023-11-27T01:29:29.351Z,100163.56
2023-11-27T01:31:56.530Z,100154.09
2023-11-27T01:34:31.392Z,100149.88
2023-11-27T01:36:58.280Z,100144.63
2023-11-27T01:39:25.162Z,100145.53
2023-11-27T01:41:52.029Z,100146.41
2023-11-27T01:44:19.059Z,100155.22
2023-11-27T01:46:49.256Z,100156.91
2023-11-27T01:49:18.790Z,100148.25
2023-11-27T01:51:46.579Z,100143.06
2023-11-27T01:54:14.500Z,100131.03
2023-11-27T01:56:47.489Z,100133.69
2023-11-27T01:59:14.783Z,100132.91
2023-11-27T02:01:42.355Z,100129.47
2023-11-27T02:04:09.730Z,100122.63
2023-11-27T02:06:36.563Z,100133.97
2023-11-27T02:09:05.497Z,100137.50
2023-11-27T02:11:33.010Z,100132.41
2023-11-27T02:14:03.308Z,100129.88
2023-11-27T02:16:30.166Z,100130.97
2023-11-27T02:18:57.518Z,100120.72
2023-11-27T02:21:24.438Z,100124.22
2023-11-27T02:23:51.290Z,100130.44
2023-11-27T02:26:19.078Z,100123.72
2023-11-27T02:28:46.195Z,100122.91
2023-11-27T02:31:15.589Z,100118.56
2023-11-27T02:33:42.486Z,100116.88
2023-11-27T02:36:09.767Z,100104.81
2023-11-27T02:38:37.549Z,100106.44
2023-11-27T02:41:05.169Z,100104.75
2023-11-27T02:43:34.341Z,100100.53
2023-11-27T02:46:01.456Z,100110.13
2023-11-27T02:48:30.575Z,100108.41
2023-11-27T02:50:57.470Z,100113.78
2023-11-27T02:53:25.812Z,100111.91
2023-11-27T02:55:53.598Z,100111.00
2023-11-27T02:58:21.397Z,100105.78
2023-11-27T03:00:48.996Z,100100.69
2023-11-27T03:03:15.981Z,100106.97
2023-11-27T03:05:43.058Z,100098.50
2023-11-27T03:08:11.407Z,100102.03
2023-11-27T03:10:43.372Z,100098.53
2023-11-27T03:13:10.858Z,100095.19
2023-11-27T03:15:37.797Z,100100.44
2023-11-27T03:18:04.973Z,100097.00
2023-11-27T03:20:31.804Z,100096.06
2023-11-27T03:22:58.733Z,100090.75
2023-11-27T03:25:28.901Z,100094.22
2023-11-27T03:27:58.857Z,100093.50
2023-11-27T03:30:25.705Z,100092.63
2023-11-27T03:32:52.612Z,100089.97
2023-11-27T03:35:19.528Z,100089.00
2023-11-27T03:37:46.693Z,100084.66
2023-11-27T03:40:13.920Z,100085.47
2023-11-27T03:42:42.460Z,100095.97
2023-11-27T03:45:10.655Z,100090.91
2023-11-27T03:47:37.624Z,100090.25
2023-11-27T03:50:04.904Z,100090.16
2023-11-27T03:52:32.220Z,100095.47
2023-11-27T03:54:59.171Z,100090.13
2023-11-27T03:57:26.221Z,100084.00
2023-11-27T03:59:53.123Z,100093.59
2023-11-27T04:02:20.065Z,100085.97
2023-11-27T04:04:48.103Z,100077.03
2023-11-27T04:07:15.061Z,100080.44
2023-11-27T04:09:42.084Z,100082.06
2023-11-27T04:12:09.099Z,100078.59
2023-11-27T04:14:35.936Z,100069.94
2023-11-27T04:17:05.413Z,100068.06
2023-11-27T04:19:32.387Z,100061.00
2023-11-27T04:21:59.372Z,100065.28
2023-11-27T04:24:26.501Z,100063.56
2023-11-27T04:26:53.304Z,100061.81
2023-11-27T04:29:20.233Z,100061.75
2023-11-27T04:31:47.245Z,100055.97
2023-11-27T04:34:17.438Z,100054.34
2023-11-27T04:36:44.951Z,100058.56
2023-11-27T04:39:12.436Z,100056.81
2023-11-27T04:41:43.823Z,100059.13
2023-11-27T04:44:11.440Z,100047.81
2023-11-27T04:46:41.573Z,100052.94
2023-11-27T04:49:11.419Z,100047.66
2023-11-27T04:51:41.501Z,100052.78
2023-11-27T04:54:08.702Z,100046.72
2023-11-27T04:56:35.859Z,100045.84
2023-11-27T04:59:02.783Z,100044.94
2023-11-27T05:01:29.794Z,100035.34
2023-11-27T05:03:57.241Z,100032.69
2023-11-27T05:06:24.178Z,100033.44
2023-11-27T05:08:51.073Z,100031.75
2023-11-27T05:11:21.191Z,100025.69
2023-11-27T05:13:49.267Z,100020.47
2023-11-27T05:16:23.454Z,100012.56
2023-11-27T05:18:50.623Z,100015.88
2023-11-27T05:21:17.777Z,100022.84
2023-11-27T05:23:44.677Z,100030.63
2023-11-27T05:26:12.838Z,100013.22
2023-11-27T05:28:39.900Z,100011.44
2023-11-27T05:31:07.471Z,100015.81
2023-11-27T05:33:35.220Z,100008.88
2023-11-27T05:36:03.638Z,100008.00
2023-11-27T05:38:30.692Z,100014.22
2023-11-27T05:40:58.203Z,100006.38
2023-11-27T05:43:25.366Z,100010.59
2023-11-27T05:45:52.587Z,99997.50
2023-11-27T05:48:23.584Z,99997.56
2023-11-27T05:50:50.683Z,99996.72
2023-11-27T05:53:17.768Z,99989.72
2023-11-27T05:55:44.834Z,99994.22
2023-11-27T05:58:12.287Z,99981.06
2023-11-27T06:00:43.082Z,99983.38
2023-11-27T06:03:10.283Z,99982.38
2023-11-27T06:05:40.165Z,99987.06
2023-11-27T06:08:07.173Z,99994.84
2023-11-27T06:10:34.200Z,99993.00
2023-11-27T06:13:01.152Z,99984.25
2023-11-27T06:15:28.106Z,99988.63
2023-11-27T06:17:57.255Z,99984.16
2023-11-27T06:20:24.076Z,99984.09
2023-11-27T06:22:54.689Z,99986.47
2023-11-27T06:25:23.054Z,99983.91
2023-11-27T06:27:50.272Z,99985.38
2023-11-27T06:30:17.133Z,99987.81
2023-11-27T06:32:44.104Z,99990.53
2023-11-27T06:35:13.790Z,99988.09
2023-11-27T06:37:40.849Z,99994.94
2023-11-27T06:40:08.809Z,99990.72
2023-11-27T06:42:35.744Z,99996.78
2023-11-27T06:45:05.312Z,99994.66
2023-11-27T06:47:33.021Z,99984.38
2023-11-27T06:49:59.839Z,99980.00
2023-11-27T06:52:27.149Z,99984.53
2023-11-27T06:54:54.721Z,99981.88
2023-11-27T06:57:21.877Z,99973.25
2023-11-27T06:59:48.742Z,99970.72
2023-11-27T07:02:19.605Z,99968.16
2023-11-27T07:04:48.549Z,99960.22
2023-11-27T07:07:15.518Z,99966.38
2023-11-27T07:09:42.417Z,99963.81
2023-11-27T07:12:09.771Z,99979.38
2023-11-27T07:14:36.722Z,99982.16
2023-11-27T07:17:04.963Z,99991.59
2023-11-27T07:19:32.279Z,99976.00
2023-11-27T07:21:59.439Z,99982.88
2023-11-27T07:24:26.390Z,99989.88
2023-11-27T07:26:58.531Z,99978.53
2023-11-27T07:29:25.628Z,99971.66
2023-11-27T07:31:52.698Z,99972.59
2023-11-27T07:34:19.741Z,99976.09
2023-11-27T07:36:46.602Z,99976.88
2023-11-27T07:39:13.612Z,99960.38
2023-11-27T07:41:40.428Z,99961.16
2023-11-27T07:44:13.972Z,99962.97
2023-11-27T07:46:41.073Z,99964.69
2023-11-27T07:49:08.177Z,99957.75
2023-11-27T07:51:37.843Z,99952.53
2023-11-27T07:54:05.160Z,99953.44
2023-11-27T07:56:34.241Z,99956.81
2023-11-27T07:59:01.698Z,99945.53
2023-11-27T08:01:28.719Z,99949.75
2023-11-27T08:03:55.710Z,99948.94
2023-11-27T08:06:22.631Z,99947.03
2023-11-27T08:08:49.498Z,99950.38
2023-11-27T08:11:16.633Z,99947.72
2023-11-27T08:13:46.965Z,99939.81
2023-11-27T08:16:13.903Z,99938.81
2023-11-27T08:18:43.197Z,99942.31
2023-11-27T08:21:12.115Z,99947.56
2023-11-27T08:23:39.245Z,99943.16
2023-11-27T08:26:06.804Z,99936.22
2023-11-27T08:28:34.306Z,99936.03
2023-11-27T08:31:01.314Z,99940.31
2023-11-27T08:33:30.543Z,99944.53
2023-11-27T08:35:59.282Z,99937.44
2023-11-27T08:38:26.587Z,99946.19
2023-11-27T08:40:53.990Z,99940.78
2023-11-27T08:43:20.898Z,99943.22
2023-11-27T08:45:50.028Z,99943.13
2023-11-27T08:48:17.483Z,99943.88
2023-11-27T08:50:44.392Z,99944.59
2023-11-27T08:53:11.830Z,99944.41
2023-11-27T08:55:38.782Z,99939.06
2023-11-27T08:58:06.250Z,99923.38
2023-11-27T09:00:34.001Z,99925.03
2023-11-27T09:03:03.530Z,99918.00
2023-11-27T09:05:33.039Z,99915.34
2023-11-27T09:08:04.725Z,99908.19
2023-11-27T09:10:32.817Z,99904.66
2023-11-27T09:13:02.166Z,99907.06
2023-11-27T09:15:29.438Z,99898.25
2023-11-27T09:17:57.246Z,99903.31
2023-11-27T09:20:24.397Z,99905.91
2023-11-27T09:22:54.344Z,99899.75
2023-11-27T09:25:21.415Z,99902.28
2023-11-27T09:27:48.309Z,99898.75
2023-11-27T09:30:16.222Z,99891.81
2023-11-27T09:32:43.116Z,99897.75
2023-11-27T09:35:12.008Z,99898.38
2023-11-27T09:37:40.476Z,99896.66
2023-11-27T09:40:10.134Z,99887.03
2023-11-27T09:42:47.108Z,99892.34
2023-11-27T09:45:21.245Z,99889.50
2023-11-27T09:47:52.605Z,99883.38
2023-11-27T09:50:25.843Z,99877.91
2023-11-27T09:53:01.369Z,99870.81
2023-11-27T09:55:33.134Z,99867.16
2023-11-27T09:58:01.175Z,99862.69
2023-11-27T10:00:29.295Z,99857.16
2023-11-27T10:03:00.615Z,99859.53
2023-11-27T10:05:27.670Z,99852.91
2023-11-27T10:07:55.554Z,99858.78
2023-11-27T10:10:28.009Z,99848.91
2023-11-27T10:13:03.339Z,99839.13
2023-11-27T10:15:36.367Z,99838.88
2023-11-27T10:18:10.207Z,99838.72
2023-11-27T10:20:41.984Z,99832.31
2023-11-27T10:23:14.095Z,99820.78
2023-11-27T10:25:41.242Z,99826.56
2023-11-27T10:28:08.158Z,99826.56
2023-11-27T10:30:35.057Z,99818.69
2023-11-27T10:33:07.398Z,99810.59
2023-11-27T10:35:35.145Z,99809.03
2023-11-27T10:38:02.156Z,99810.00
2023-11-27T10:40:29.200Z,99801.09
2023-11-27T10:43:02.129Z,99799.16
2023-11-27T10:45:30.325Z,99798.84
2023-11-27T10:47:58.256Z,99796.47
2023-11-27T10:50:29.557Z,99800.56
2023-11-27T10:52:58.217Z,99787.97
2023-11-27T10:55:29.555Z,99789.78
2023-11-27T10:58:00.713Z,99800.03
2023-11-27T11:00:31.715Z,99797.25
2023-11-27T11:03:04.743Z,99781.28
2023-11-27T11:05:47.051Z,99782.41
2023-11-27T11:08:14.719Z,99782.25
2023-11-27T11:10:42.250Z,99777.28
2023-11-27T11:13:17.404Z,99769.69
2023-11-27T11:15:58.204Z,99764.44
2023-11-27T11:18:45.395Z,99762.22
2023-11-27T11:21:25.811Z,99763.44
2023-11-27T11:24:10.674Z,99777.81
2023-11-27T11:27:09.014Z,99772.41
2023-11-27T11:29:37.670Z,99754.41
2023-11-27T11:32:10.049Z,99749.56
2023-11-27T11:34:42.986Z,99742.59
2023-11-27T11:37:17.562Z,99743.59
2023-11-27T11:39:47.457Z,99729.78
2023-11-27T11:46:20.936Z,99729.19
2023-11-27T11:52:10.824Z,99712.72
2023-11-27T11:52:25.511Z,99718.50
2023-11-27T11:54:56.258Z,99714.84
2023-11-27T11:57:23.570Z,99706.16
2023-11-27T11:59:52.029Z,99704.13
2023-11-27T12:02:24.358Z,99695.19
2023-11-27T12:04:55.596Z,99689.31
2023-11-27T12:07:26.053Z,99698.81
2023-11-27T12:09:53.054Z,99680.59
2023-11-27T12:12:21.391Z,99688.47
2023-11-27T12:14:48.552Z,99671.69
2023-11-27T12:17:22.404Z,99676.28
2023-11-27T12:19:49.557Z,99679.78
2023-11-27T12:22:20.803Z,99675.38
2023-11-27T12:24:48.387Z,99673.16
2023-11-27T12:27:15.351Z,99673.50
2023-11-27T12:29:49.769Z,99662.66
2023-11-27T12:32:17.694Z,99661.38
2023-11-27T12:34:44.760Z,99672.16
2023-11-27T12:37:11.633Z,99656.00
2023-11-27T12:39:41.148Z,99653.91
2023-11-27T12:42:16.116Z,99644.31
2023-11-27T12:44:48.391Z,99640.63
2023-11-27T12:47:20.716Z,99636.34
2023-11-27T12:49:53.755Z,99631.41
2023-11-27T12:52:20.938Z,99639.16
2023-11-27T12:54:55.598Z,99627.13
2023-11-27T12:57:23.692Z,99620.00
2023-11-27T12:59:53.980Z,99610.81
2023-11-27T13:02:27.172Z,99601.41
2023-11-27T13:04:58.173Z,99603.94
2023-11-27T13:07:27.009Z,99603.00
2023-11-27T13:09:56.952Z,99602.88
2023-11-27T13:12:27.788Z,99603.88
2023-11-27T13:14:54.907Z,99600.44
2023-11-27T13:17:22.662Z,99596.16
2023-11-27T13:19:52.213Z,99597.81
2023-11-27T13:22:19.311Z,99599.19
2023-11-27T13:24:51.854Z,99609.38
2023-11-27T13:27:22.827Z,99599.88
2023-11-27T13:29:53.677Z,99595.91
2023-11-27T13:32:21.611Z,99587.06
2023-11-27T13:34:58.450Z,99583.16
2023-11-27T13:37:30.709Z,99584.41
2023-11-27T13:40:02.656Z,99586.50
2023-11-27T13:42:32.507Z,99584.66
2023-11-27T13:45:00.524Z,99585.06
2023-11-27T13:47:29.846Z,99579.66
2023-11-27T13:49:56.997Z,99583.34
2023-11-27T13:52:31.105Z,99584.47
2023-11-27T13:54:59.248Z,99585.13
2023-11-27T13:57:30.138Z,99573.41
2023-11-27T14:00:21.601Z,99574.63
2023-11-27T14:02:52.883Z,99575.38
2023-11-27T14:05:23.275Z,99581.59
2023-11-27T14:07:52.357Z,99578.41
2023-11-27T14:10:34.367Z,99581.41
2023-11-27T14:13:02.909Z,99574.81
2023-11-27T14:15:40.810Z,99562.69
2023-11-27T14:18:24.052Z,99567.75
2023-11-27T14:21:14.160Z,99559.34
2023-11-27T14:23:41.077Z,99552.94
2023-11-27T14:26:11.612Z,99550.91
2023-11-27T14:28:45.188Z,99547.84
2023-11-27T14:31:12.519Z,99540.84
2023-11-27T14:33:41.302Z,99535.34
2023-11-27T14:36:12.955Z,99537.31
2023-11-27T14:38:41.088Z,99527.81
2023-11-27T14:41:09.827Z,99530.09
2023-11-27T14:43:37.060Z,99526.78
2023-11-27T14:46:05.292Z,99524.28
2023-11-27T14:48:34.094Z,99512.59
2023-11-27T14:51:01.848Z,99514.47
2023-11-27T14:53:28.854Z,99510.63
2023-11-27T14:55:55.848Z,99511.94
2023-11-27T14:58:23.785Z,99512.31
2023-11-27T15:00:53.259Z,99517.41
2023-11-27T15:03:27.286Z,99507.56
2023-11-27T15:05:54.801Z,99500.13
2023-11-27T15:08:22.273Z,99501.78
2023-11-27T15:10:52.797Z,99494.50
2023-11-27T15:13:21.725Z,99491.53
2023-11-27T15:15:56.138Z,99485.84
2023-11-27T15:18:23.107Z,99487.22
2023-11-27T15:20:50.250Z,99487.03
2023-11-27T15:23:19.868Z,99475.69
2023-11-27T15:25:47.018Z,99483.56
2023-11-27T15:28:14.936Z,99475.91
2023-11-27T15:30:41.821Z,99471.94
2023-11-27T15:33:09.521Z,99476.44
2023-11-27T15:35:40.036Z,99470.31
2023-11-27T15:38:06.967Z,99473.09
2023-11-27T15:40:35.941Z,99469.34
2023-11-27T15:43:03.324Z,99457.31
2023-11-27T15:45:32.472Z,99469.41
2023-11-27T15:48:00.519Z,99457.97
2023-11-27T15:50:32.279Z,99457.22
2023-11-27T15:53:02.190Z,99450.34
2023-11-27T15:55:30.856Z,99450.41
2023-11-27T15:57:58.003Z,99456.47
2023-11-27T16:00:27.015Z,99445.34
2023-11-27T16:02:56.644Z,99442.34
2023-11-27T16:05:24.468Z,99443.06
2023-11-27T16:07:51.462Z,99446.59
2023-11-27T16:10:22.888Z,99437.75
2023-11-27T16:12:53.224Z,99430.06
2023-11-27T16:15:21.682Z,99423.38
2023-11-27T16:17:59.912Z,99413.13
2023-11-27T16:20:31.823Z,99414.31
2023-11-27T16:22:58.615Z,99406.97
2023-11-27T16:25:25.821Z,99402.47
2023-11-27T16:27:52.984Z,99394.53
2023-11-27T16:30:23.076Z,99380.13
2023-11-27T16:32:51.559Z,99376.19
2023-11-27T16:35:25.101Z,99372.75
2023-11-27T16:37:52.932Z,99372.53
2023-11-27T16:40:21.715Z,99364.84
2023-11-27T16:42:53.630Z,99371.13
2023-11-27T16:45:24.700Z,99373.00
2023-11-27T16:47:54.305Z,99365.09
2023-11-27T16:50:22.947Z,99374.88
2023-11-27T16:52:50.161Z,99365.88
2023-11-27T16:55:21.439Z,99366.91
2023-11-27T16:57:50.804Z,99360.13
2023-11-27T17:00:25.411Z,99367.63
2023-11-27T17:02:56.985Z,99354.06
2023-11-27T17:05:25.486Z,99360.59
2023-11-27T17:07:52.342Z,99351.88
2023-11-27T17:10:22.785Z,99346.31
2023-11-27T17:12:50.916Z,99349.41
2023-11-27T17:15:18.106Z,99338.09
2023-11-27T17:17:47.590Z,99350.34
2023-11-27T17:20:16.585Z,99334.84
2023-11-27T17:25:21.845Z,99328.88
2023-11-27T17:27:48.934Z,99328.06
2023-11-27T17:30:16.417Z,99327.28
2023-11-27T17:32:43.666Z,99329.97
2023-11-27T17:35:14.550Z,99328.41
2023-11-27T17:37:42.410Z,99324.47
2023-11-27T17:40:16.151Z,99314.09
2023-11-27T17:42:48.126Z,99327.34
2023-11-27T17:45:15.259Z,99314.00
2023-11-27T17:47:42.920Z,99318.03
2023-11-27T17:50:14.924Z,99309.13
2023-11-27T17:52:43.045Z,99315.34
2023-11-27T17:55:15.190Z,99317.94
2023-11-27T17:57:46.538Z,99301.00
2023-11-27T18:00:20.636Z,99293.56
2023-11-27T18:02:52.225Z,99294.56
2023-11-27T18:05:26.032Z,99287.34
2023-11-27T18:07:58.183Z,99288.47
2023-11-27T18:10:25.729Z,99289.09
2023-11-27T18:12:54.530Z,99290.88
2023-11-27T18:15:22.999Z,99285.66
2023-11-27T18:17:51.818Z,99280.09
2023-11-27T18:20:20.029Z,99287.94
2023-11-27T18:22:49.490Z,99278.78
2023-11-27T18:25:20.783Z,99278.38
2023-11-27T18:27:49.258Z,99279.28
2023-11-27T18:30:18.272Z,99272.22
2023-11-27T18:32:45.916Z,99277.38
2023-11-27T18:35:13.577Z,99273.78
2023-11-27T18:37:49.334Z,99270.75
2023-11-27T18:40:19.809Z,99270.16
2023-11-27T18:42:51.985Z,99272.50
2023-11-27T18:45:25.370Z,99279.09
2023-11-27T18:47:52.472Z,99268.06
2023-11-27T18:50:19.404Z,99261.13
2023-11-27T18:52:46.448Z,99268.00
2023-11-27T18:55:13.873Z,99270.75
2023-11-27T18:57:42.395Z,99265.56
2023-11-27T19:00:15.474Z,99267.44
2023-11-27T19:02:42.829Z,99264.47
2023-11-27T19:05:11.024Z,99260.00
2023-11-27T19:07:37.928Z,99256.06
2023-11-27T19:10:10.421Z,99260.16
2023-11-27T19:12:37.346Z,99259.34
2023-11-27T19:15:04.894Z,99247.84
2023-11-27T19:17:32.954Z,99252.34
2023-11-27T19:19:59.977Z,99246.69
2023-11-27T19:22:26.982Z,99244.09
2023-11-27T19:24:55.343Z,99242.25
2023-11-27T19:27:24.838Z,99242.03
2023-11-27T19:29:51.888Z,99240.84
2023-11-27T19:32:19.138Z,99240.78
2023-11-27T19:34:46.075Z,99240.78
2023-11-27T19:37:12.965Z,99239.19
2023-11-27T19:39:39.877Z,99235.03
2023-11-27T19:42:06.859Z,99232.06
2023-11-27T19:44:34.779Z,99227.56
2023-11-27T19:47:01.751Z,99224.47
2023-11-27T19:49:28.981Z,99231.50
2023-11-27T19:52:00.662Z,99227.25
2023-11-27T19:54:33.024Z,99220.06
2023-11-27T19:57:03.318Z,99219.31
2023-11-27T19:59:30.634Z,99212.38
2023-11-27T20:01:57.595Z,99201.03
2023-11-27T20:04:25.092Z,99199.41
2023-11-27T20:06:52.153Z,99196.47
2023-11-27T20:09:19.352Z,99192.97
2023-11-27T20:11:46.256Z,99176.41
2023-11-27T20:14:13.389Z,99195.19
2023-11-27T20:16:40.794Z,99182.25
2023-11-27T20:19:10.910Z,99189.88
2023-11-27T20:21:40.777Z,99172.44
2023-11-27T20:24:08.085Z,99173.56
2023-11-27T20:26:36.792Z,99175.53
2023-11-27T20:29:06.637Z,99169.47
2023-11-27T20:31:38.596Z,99170.03
2023-11-27T20:34:10.095Z,99167.91
2023-11-27T20:36:40.365Z,99165.22
2023-11-27T20:39:12.663Z,99160.41
2023-11-27T20:41:44.702Z,99157.59
2023-11-27T20:44:11.813Z,99157.78
2023-11-27T20:46:39.515Z,99157.13
2023-11-27T20:49:07.143Z,99148.47
2023-11-27T20:51:34.044Z,99155.91
2023-11-27T20:54:02.040Z,99150.69
2023-11-27T20:56:30.828Z,99153.44
2023-11-27T20:58:59.916Z,99156.88
2023-11-27T21:01:29.127Z,99147.34
2023-11-27T21:04:08.133Z,99149.97
2023-11-27T21:06:41.525Z,99145.19
2023-11-27T21:09:10.354Z,99153.78
2023-11-27T21:11:37.928Z,99150.25
2023-11-27T21:14:04.916Z,99141.84
2023-11-27T21:16:36.235Z,99146.09
2023-11-27T21:19:04.415Z,99148.63
2023-11-27T21:21:33.037Z,99149.19
2023-11-27T21:24:00.225Z,99135.72
2023-11-27T21:26:28.691Z,99133.59
2023-11-27T21:28:56.249Z,99136.34
2023-11-27T21:31:23.633Z,99133.78
2023-11-27T21:33:50.699Z,99131.47
2023-11-27T21:36:18.196Z,99131.75
2023-11-27T21:38:45.816Z,99128.22
2023-11-27T21:41:17.265Z,99118.84
2023-11-27T21:43:44.205Z,99126.09
2023-11-27T21:46:11.961Z,99121.94
2023-11-27T21:48:42.226Z,99118.22
2023-11-27T21:51:09.194Z,99120.22
2023-11-27T21:53:36.147Z,99107.75
2023-11-27T21:56:03.246Z,99106.19
2023-11-27T21:58:35.632Z,99107.47
2023-11-27T22:01:11.855Z,99104.13
2023-11-27T22:03:44.333Z,99111.78
2023-11-27T22:06:11.729Z,99113.41
2023-11-27T22:08:40.399Z,99105.91
2023-11-27T22:11:07.763Z,99102.09
2023-11-27T22:13:35.290Z,99103.72
2023-11-27T22:16:02.323Z,99097.13
2023-11-27T22:18:29.653Z,99099.81
2023-11-27T22:20:59.733Z,99095.75
2023-11-27T22:23:26.885Z,99093.91
2023-11-27T22:25:54.053Z,99093.06
2023-11-27T22:28:21.002Z,99096.53
2023-11-27T22:30:48.032Z,99097.38
2023-11-27T22:33:15.037Z,99085.78
2023-11-27T22:35:42.956Z,99090.09
2023-11-27T22:38:10.194Z,99085.03
2023-11-27T22:40:37.199Z,99075.97
2023-11-27T22:43:04.246Z,99087.13
2023-11-27T22:45:31.298Z,99090.94
2023-11-27T22:47:58.305Z,99081.63
2023-11-27T22:50:25.201Z,99077.09
2023-11-27T22:52:52.221Z,99067.50
2023-11-27T22:55:19.412Z,99079.59
2023-11-27T22:57:49.123Z,99072.72
2023-11-27T23:00:22.701Z,99078.94
2023-11-27T23:02:50.524Z,99069.06
2023-11-27T23:05:19.232Z,99068.50
2023-11-27T23:07:46.358Z,99064.66
2023-11-27T23:10:14.107Z,99071.44
2023-11-27T23:12:43.901Z,99074.28
2023-11-27T23:15:13.519Z,99066.72
2023-11-27T23:17:41.453Z,99054.88
2023-11-27T23:20:12.373Z,99056.75
2023-11-27T23:22:39.471Z,99058.25
2023-11-27T23:25:07.582Z,99052.44
2023-11-27T23:27:34.560Z,99042.53
2023-11-27T23:30:01.819Z,99046.69
2023-11-27T23:32:30.898Z,99044.19
2023-11-27T23:34:57.935Z,99040.94
2023-11-27T23:37:24.832Z,99042.00
2023-11-27T23:39:51.687Z,99045.03
2023-11-27T23:42:19.245Z,99044.13
2023-11-27T23:44:46.764Z,99039.13
2023-11-27T23:47:13.741Z,99040.19
2023-11-27T23:49:41.058Z,99030.38
2023-11-27T23:52:08.979Z,99028.88
2023-11-27T23:54:36.140Z,99025.78
2023-11-27T23:57:03.196Z,99027.09
2023-11-27T23:59:30.064Z,99025.59
